Terminal Aerodrome Forecast
Issued by NWS Sterling, VA

Home | Current Version | Previous Version | Text Only | Print | Product List | Glossary On
Versions: 1 2 3 4 5 6 7 8 9 10 11 12 13 14 15 16 17 18 19
801
FTUS41 KLWX 271730
TAFCHO
TAF
KCHO 271730Z 2718/2818 28006KT P6SM -SHRA VCTS BKN060CB
     FM272000 33006KT 4SM -TSRA BKN060CB
     FM280000 36004KT P6SM BKN060
     FM280700 VRB03KT 5SM BR BKN030
     FM280900 VRB03KT 1 1/2SM BR BKN008
     FM281200 00000KT P6SM BKN003
     FM281600 VRB03KT P6SM BKN035=

USA.gov is the U.S. government's official web portal to all federal, state and local government web resources and services.